sensor_id;sensor_type;location;lat;lon;timestamp;P1;durP1;ratioP1;P2;durP2;ratioP2
15799;SDS011;8002;51.196;7.010;2023-12-20T00:00:54;19.10;;;9.83;;
15799;SDS011;8002;51.196;7.010;2023-12-20T00:03:20;9.77;;;6.20;;
15799;SDS011;8002;51.196;7.010;2023-12-20T00:05:46;8.40;;;5.13;;
15799;SDS011;8002;51.196;7.010;2023-12-20T00:08:13;11.77;;;5.43;;
15799;SDS011;8002;51.196;7.010;2023-12-20T00:10:39;12.43;;;5.93;;
15799;SDS011;8002;51.196;7.010;2023-12-20T00:13:05;8.57;;;5.23;;
15799;SDS011;8002;51.196;7.010;2023-12-20T00:15:34;10.67;;;5.70;;
15799;SDS011;8002;51.196;7.010;2023-12-20T00:18:00;10.80;;;4.77;;
15799;SDS011;8002;51.196;7.010;2023-12-20T00:20:26;10.23;;;4.70;;
15799;SDS011;8002;51.196;7.010;2023-12-20T00:22:53;11.07;;;4.80;;
15799;SDS011;8002;51.196;7.010;2023-12-20T00:25:19;9.90;;;5.30;;
15799;SDS011;8002;51.196;7.010;2023-12-20T00:27:46;10.97;;;5.57;;
15799;SDS011;8002;51.196;7.010;2023-12-20T00:30:12;11.50;;;5.67;;
15799;SDS011;8002;51.196;7.010;2023-12-20T00:32:40;13.30;;;5.90;;
15799;SDS011;8002;51.196;7.010;2023-12-20T00:35:11;10.43;;;5.70;;
15799;SDS011;8002;51.196;7.010;2023-12-20T00:37:37;10.20;;;6.00;;
15799;SDS011;8002;51.196;7.010;2023-12-20T00:40:04;9.73;;;5.40;;
15799;SDS011;8002;51.196;7.010;2023-12-20T00:42:31;14.03;;;6.10;;
15799;SDS011;8002;51.196;7.010;2023-12-20T00:44:58;16.57;;;7.47;;
15799;SDS011;8002;51.196;7.010;2023-12-20T00:47:24;14.50;;;7.40;;
15799;SDS011;8002;51.196;7.010;2023-12-20T00:49:52;17.33;;;6.90;;
15799;SDS011;8002;51.196;7.010;2023-12-20T00:52:18;14.00;;;5.80;;
15799;SDS011;8002;51.196;7.010;2023-12-20T00:54:47;14.33;;;7.50;;
15799;SDS011;8002;51.196;7.010;2023-12-20T00:57:13;12.87;;;6.40;;
15799;SDS011;8002;51.196;7.010;2023-12-20T00:59:40;14.67;;;6.57;;
15799;SDS011;8002;51.196;7.010;2023-12-20T01:02:06;12.83;;;6.83;;
15799;SDS011;8002;51.196;7.010;2023-12-20T01:04:33;13.47;;;6.83;;
15799;SDS011;8002;51.196;7.010;2023-12-20T01:07:01;15.13;;;7.23;;
15799;SDS011;8002;51.196;7.010;2023-12-20T01:09:27;14.93;;;8.23;;
15799;SDS011;8002;51.196;7.010;2023-12-20T01:11:54;13.23;;;6.70;;
15799;SDS011;8002;51.196;7.010;2023-12-20T01:14:20;12.80;;;7.53;;
15799;SDS011;8002;51.196;7.010;2023-12-20T01:16:47;17.13;;;7.83;;
15799;SDS011;8002;51.196;7.010;2023-12-20T01:19:13;20.17;;;8.87;;
15799;SDS011;8002;51.196;7.010;2023-12-20T01:21:39;15.30;;;8.53;;
15799;SDS011;8002;51.196;7.010;2023-12-20T01:24:07;18.60;;;8.87;;
15799;SDS011;8002;51.196;7.010;2023-12-20T01:26:34;20.80;;;9.47;;
15799;SDS011;8002;51.196;7.010;2023-12-20T01:29:00;19.67;;;9.10;;
15799;SDS011;8002;51.196;7.010;2023-12-20T01:31:27;17.37;;;8.40;;
15799;SDS011;8002;51.196;7.010;2023-12-20T01:33:53;22.40;;;11.73;;
15799;SDS011;8002;51.196;7.010;2023-12-20T01:36:19;24.57;;;14.07;;
15799;SDS011;8002;51.196;7.010;2023-12-20T01:38:45;23.73;;;14.67;;
15799;SDS011;8002;51.196;7.010;2023-12-20T01:41:13;25.03;;;16.40;;
15799;SDS011;8002;51.196;7.010;2023-12-20T01:43:40;31.53;;;17.70;;
15799;SDS011;8002;51.196;7.010;2023-12-20T01:46:06;26.60;;;17.70;;
15799;SDS011;8002;51.196;7.010;2023-12-20T01:48:33;29.40;;;20.10;;
15799;SDS011;8002;51.196;7.010;2023-12-20T01:50:59;34.20;;;19.70;;
15799;SDS011;8002;51.196;7.010;2023-12-20T01:53:26;35.30;;;19.87;;
15799;SDS011;8002;51.196;7.010;2023-12-20T01:55:54;29.07;;;20.20;;
15799;SDS011;8002;51.196;7.010;2023-12-20T01:58:22;34.23;;;20.77;;
15799;SDS011;8002;51.196;7.010;2023-12-20T02:00:49;38.13;;;22.27;;
15799;SDS011;8002;51.196;7.010;2023-12-20T02:03:15;32.73;;;21.13;;
15799;SDS011;8002;51.196;7.010;2023-12-20T02:05:41;34.53;;;21.67;;
15799;SDS011;8002;51.196;7.010;2023-12-20T02:08:08;31.57;;;19.70;;
15799;SDS011;8002;51.196;7.010;2023-12-20T02:10:34;31.83;;;18.07;;
15799;SDS011;8002;51.196;7.010;2023-12-20T02:13:01;26.40;;;17.47;;
15799;SDS011;8002;51.196;7.010;2023-12-20T02:15:28;26.77;;;16.80;;
15799;SDS011;8002;51.196;7.010;2023-12-20T02:17:55;31.00;;;17.37;;
15799;SDS011;8002;51.196;7.010;2023-12-20T02:20:21;30.00;;;16.60;;
15799;SDS011;8002;51.196;7.010;2023-12-20T02:22:49;33.00;;;16.60;;
15799;SDS011;8002;51.196;7.010;2023-12-20T02:25:15;27.93;;;16.17;;
15799;SDS011;8002;51.196;7.010;2023-12-20T02:27:41;25.13;;;16.33;;
15799;SDS011;8002;51.196;7.010;2023-12-20T02:30:09;31.40;;;15.57;;
15799;SDS011;8002;51.196;7.010;2023-12-20T02:32:36;21.50;;;13.23;;
15799;SDS011;8002;51.196;7.010;2023-12-20T02:35:02;26.37;;;15.33;;
15799;SDS011;8002;51.196;7.010;2023-12-20T02:37:29;25.40;;;15.07;;
15799;SDS011;8002;51.196;7.010;2023-12-20T02:39:56;25.63;;;16.07;;
15799;SDS011;8002;51.196;7.010;2023-12-20T02:42:23;23.47;;;15.53;;
15799;SDS011;8002;51.196;7.010;2023-12-20T02:44:49;24.63;;;15.27;;
15799;SDS011;8002;51.196;7.010;2023-12-20T02:47:15;28.60;;;14.63;;
15799;SDS011;8002;51.196;7.010;2023-12-20T02:49:42;25.30;;;14.57;;
15799;SDS011;8002;51.196;7.010;2023-12-20T02:52:08;26.70;;;15.37;;
15799;SDS011;8002;51.196;7.010;2023-12-20T02:54:34;28.27;;;14.30;;
15799;SDS011;8002;51.196;7.010;2023-12-20T02:57:02;29.63;;;15.17;;
15799;SDS011;8002;51.196;7.010;2023-12-20T02:59:29;24.83;;;14.03;;
15799;SDS011;8002;51.196;7.010;2023-12-20T03:01:55;22.83;;;13.30;;
15799;SDS011;8002;51.196;7.010;2023-12-20T03:04:21;25.27;;;14.10;;
15799;SDS011;8002;51.196;7.010;2023-12-20T03:06:48;22.60;;;13.80;;
15799;SDS011;8002;51.196;7.010;2023-12-20T03:09:14;18.20;;;11.57;;
15799;SDS011;8002;51.196;7.010;2023-12-20T03:11:40;26.37;;;13.77;;
15799;SDS011;8002;51.196;7.010;2023-12-20T03:14:08;20.80;;;11.97;;
15799;SDS011;8002;51.196;7.010;2023-12-20T03:16:34;22.03;;;10.93;;
15799;SDS011;8002;51.196;7.010;2023-12-20T03:19:01;22.33;;;11.13;;
15799;SDS011;8002;51.196;7.010;2023-12-20T03:21:27;23.63;;;11.00;;
15799;SDS011;8002;51.196;7.010;2023-12-20T03:23:53;16.37;;;9.10;;
15799;SDS011;8002;51.196;7.010;2023-12-20T03:26:20;21.17;;;8.80;;
15799;SDS011;8002;51.196;7.010;2023-12-20T03:28:47;19.73;;;11.30;;
15799;SDS011;8002;51.196;7.010;2023-12-20T03:31:15;18.60;;;8.73;;
15799;SDS011;8002;51.196;7.010;2023-12-20T03:33:41;21.63;;;9.23;;
15799;SDS011;8002;51.196;7.010;2023-12-20T03:36:08;17.07;;;9.13;;
15799;SDS011;8002;51.196;7.010;2023-12-20T03:38:34;15.03;;;8.10;;
15799;SDS011;8002;51.196;7.010;2023-12-20T03:41:00;18.70;;;8.17;;
15799;SDS011;8002;51.196;7.010;2023-12-20T03:43:27;20.57;;;9.63;;
15799;SDS011;8002;51.196;7.010;2023-12-20T03:45:53;16.63;;;9.07;;
15799;SDS011;8002;51.196;7.010;2023-12-20T03:48:20;17.67;;;9.33;;
15799;SDS011;8002;51.196;7.010;2023-12-20T03:50:47;18.90;;;8.50;;
15799;SDS011;8002;51.196;7.010;2023-12-20T03:53:13;14.97;;;7.97;;
15799;SDS011;8002;51.196;7.010;2023-12-20T03:55:39;16.17;;;8.10;;
15799;SDS011;8002;51.196;7.010;2023-12-20T03:58:06;14.77;;;8.43;;
15799;SDS011;8002;51.196;7.010;2023-12-20T04:00:32;11.33;;;7.63;;
15799;SDS011;8002;51.196;7.010;2023-12-20T04:02:58;21.83;;;9.30;;
15799;SDS011;8002;51.196;7.010;2023-12-20T04:05:26;15.47;;;7.33;;
15799;SDS011;8002;51.196;7.010;2023-12-20T04:07:52;18.53;;;8.13;;
15799;SDS011;8002;51.196;7.010;2023-12-20T04:10:19;20.47;;;7.87;;
15799;SDS011;8002;51.196;7.010;2023-12-20T04:12:45;20.27;;;7.23;;
15799;SDS011;8002;51.196;7.010;2023-12-20T04:15:11;19.40;;;7.67;;
15799;SDS011;8002;51.196;7.010;2023-12-20T04:17:37;16.73;;;7.07;;
15799;SDS011;8002;51.196;7.010;2023-12-20T04:20:04;14.27;;;6.73;;
15799;SDS011;8002;51.196;7.010;2023-12-20T04:22:32;14.07;;;7.50;;
15799;SDS011;8002;51.196;7.010;2023-12-20T04:24:58;22.13;;;7.60;;
15799;SDS011;8002;51.196;7.010;2023-12-20T04:27:25;13.90;;;6.77;;
15799;SDS011;8002;51.196;7.010;2023-12-20T04:29:51;16.57;;;7.20;;
15799;SDS011;8002;51.196;7.010;2023-12-20T04:32:17;17.47;;;7.27;;
15799;SDS011;8002;51.196;7.010;2023-12-20T04:34:44;18.70;;;7.33;;
15799;SDS011;8002;51.196;7.010;2023-12-20T04:37:10;18.13;;;6.90;;
15799;SDS011;8002;51.196;7.010;2023-12-20T04:39:38;14.90;;;6.70;;
15799;SDS011;8002;51.196;7.010;2023-12-20T04:42:05;16.77;;;7.20;;
15799;SDS011;8002;51.196;7.010;2023-12-20T04:44:32;17.13;;;7.80;;
15799;SDS011;8002;51.196;7.010;2023-12-20T04:46:58;18.53;;;7.77;;
15799;SDS011;8002;51.196;7.010;2023-12-20T04:49:24;17.83;;;7.60;;
15799;SDS011;8002;51.196;7.010;2023-12-20T04:51:51;16.57;;;7.30;;
15799;SDS011;8002;51.196;7.010;2023-12-20T04:54:17;15.13;;;6.77;;
15799;SDS011;8002;51.196;7.010;2023-12-20T04:56:45;16.17;;;8.03;;
15799;SDS011;8002;51.196;7.010;2023-12-20T04:59:11;20.53;;;8.00;;
15799;SDS011;8002;51.196;7.010;2023-12-20T05:01:38;17.47;;;7.57;;
15799;SDS011;8002;51.196;7.010;2023-12-20T05:04:04;12.30;;;7.07;;
15799;SDS011;8002;51.196;7.010;2023-12-20T05:06:31;21.27;;;7.77;;
15799;SDS011;8002;51.196;7.010;2023-12-20T05:08:57;15.53;;;7.97;;
15799;SDS011;8002;51.196;7.010;2023-12-20T05:11:23;16.80;;;7.57;;
15799;SDS011;8002;51.196;7.010;2023-12-20T05:13:51;19.97;;;8.20;;
15799;SDS011;8002;51.196;7.010;2023-12-20T05:16:17;15.70;;;8.53;;
15799;SDS011;8002;51.196;7.010;2023-12-20T05:18:44;18.50;;;8.27;;
15799;SDS011;8002;51.196;7.010;2023-12-20T05:21:10;24.27;;;10.10;;
15799;SDS011;8002;51.196;7.010;2023-12-20T05:23:37;13.60;;;8.17;;
15799;SDS011;8002;51.196;7.010;2023-12-20T05:26:03;17.60;;;8.83;;
15799;SDS011;8002;51.196;7.010;2023-12-20T05:28:29;17.20;;;8.70;;
15799;SDS011;8002;51.196;7.010;2023-12-20T05:30:57;19.67;;;8.70;;
15799;SDS011;8002;51.196;7.010;2023-12-20T05:33:23;15.93;;;8.50;;
15799;SDS011;8002;51.196;7.010;2023-12-20T05:35:50;18.63;;;9.70;;
15799;SDS011;8002;51.196;7.010;2023-12-20T05:38:16;13.70;;;8.47;;
15799;SDS011;8002;51.196;7.010;2023-12-20T05:40:42;12.93;;;8.00;;
15799;SDS011;8002;51.196;7.010;2023-12-20T05:43:09;23.23;;;8.23;;
15799;SDS011;8002;51.196;7.010;2023-12-20T05:45:35;21.00;;;8.53;;
15799;SDS011;8002;51.196;7.010;2023-12-20T05:48:03;17.43;;;9.53;;
15799;SDS011;8002;51.196;7.010;2023-12-20T05:50:29;19.87;;;8.80;;
15799;SDS011;8002;51.196;7.010;2023-12-20T05:52:56;17.90;;;7.60;;
15799;SDS011;8002;51.196;7.010;2023-12-20T05:55:22;16.23;;;8.07;;
15799;SDS011;8002;51.196;7.010;2023-12-20T05:57:48;18.73;;;7.50;;
15799;SDS011;8002;51.196;7.010;2023-12-20T06:00:15;15.77;;;8.03;;
15799;SDS011;8002;51.196;7.010;2023-12-20T06:02:41;18.90;;;8.43;;
15799;SDS011;8002;51.196;7.010;2023-12-20T06:05:09;20.80;;;8.10;;
15799;SDS011;8002;51.196;7.010;2023-12-20T06:07:35;19.10;;;7.57;;
15799;SDS011;8002;51.196;7.010;2023-12-20T06:10:02;15.30;;;6.90;;
15799;SDS011;8002;51.196;7.010;2023-12-20T06:12:28;15.80;;;8.10;;
15799;SDS011;8002;51.196;7.010;2023-12-20T06:14:57;19.37;;;8.83;;
15799;SDS011;8002;51.196;7.010;2023-12-20T06:17:23;19.67;;;8.50;;
15799;SDS011;8002;51.196;7.010;2023-12-20T06:19:49;22.40;;;8.03;;
15799;SDS011;8002;51.196;7.010;2023-12-20T06:22:17;25.43;;;8.50;;
15799;SDS011;8002;51.196;7.010;2023-12-20T06:24:43;16.20;;;7.50;;
15799;SDS011;8002;51.196;7.010;2023-12-20T06:27:10;17.20;;;7.20;;
15799;SDS011;8002;51.196;7.010;2023-12-20T06:29:36;23.80;;;7.70;;
15799;SDS011;8002;51.196;7.010;2023-12-20T06:32:03;20.17;;;8.40;;
15799;SDS011;8002;51.196;7.010;2023-12-20T06:34:29;19.27;;;8.20;;
15799;SDS011;8002;51.196;7.010;2023-12-20T06:36:55;19.20;;;7.90;;
15799;SDS011;8002;51.196;7.010;2023-12-20T06:39:23;18.20;;;8.87;;
15799;SDS011;8002;51.196;7.010;2023-12-20T06:41:49;19.33;;;8.47;;
15799;SDS011;8002;51.196;7.010;2023-12-20T06:44:16;19.63;;;8.43;;
15799;SDS011;8002;51.196;7.010;2023-12-20T06:46:42;19.40;;;8.60;;
15799;SDS011;8002;51.196;7.010;2023-12-20T06:49:09;19.50;;;9.60;;
15799;SDS011;8002;51.196;7.010;2023-12-20T06:51:35;18.93;;;9.53;;
15799;SDS011;8002;51.196;7.010;2023-12-20T06:54:01;23.63;;;9.90;;
15799;SDS011;8002;51.196;7.010;2023-12-20T06:56:29;23.20;;;9.37;;
15799;SDS011;8002;51.196;7.010;2023-12-20T06:58:55;23.50;;;9.90;;
15799;SDS011;8002;51.196;7.010;2023-12-20T07:01:22;25.40;;;9.03;;
15799;SDS011;8002;51.196;7.010;2023-12-20T07:03:48;22.80;;;9.77;;
15799;SDS011;8002;51.196;7.010;2023-12-20T07:06:14;24.67;;;9.90;;
15799;SDS011;8002;51.196;7.010;2023-12-20T07:08:42;23.77;;;9.63;;
15799;SDS011;8002;51.196;7.010;2023-12-20T07:11:08;19.63;;;9.63;;
15799;SDS011;8002;51.196;7.010;2023-12-20T07:13:36;18.93;;;9.30;;
15799;SDS011;8002;51.196;7.010;2023-12-20T07:16:02;20.37;;;9.07;;
15799;SDS011;8002;51.196;7.010;2023-12-20T07:18:29;18.30;;;8.63;;
15799;SDS011;8002;51.196;7.010;2023-12-20T07:20:55;18.33;;;8.40;;
15799;SDS011;8002;51.196;7.010;2023-12-20T07:23:21;20.97;;;8.90;;
15799;SDS011;8002;51.196;7.010;2023-12-20T07:25:47;21.83;;;8.13;;
15799;SDS011;8002;51.196;7.010;2023-12-20T07:28:14;19.13;;;8.70;;
15799;SDS011;8002;51.196;7.010;2023-12-20T07:30:41;19.70;;;8.70;;
15799;SDS011;8002;51.196;7.010;2023-12-20T07:33:08;15.37;;;7.97;;
15799;SDS011;8002;51.196;7.010;2023-12-20T07:35:35;21.17;;;8.03;;
15799;SDS011;8002;51.196;7.010;2023-12-20T07:38:01;19.47;;;8.37;;
15799;SDS011;8002;51.196;7.010;2023-12-20T07:40:27;19.53;;;8.10;;
15799;SDS011;8002;51.196;7.010;2023-12-20T07:42:54;24.30;;;8.90;;
15799;SDS011;8002;51.196;7.010;2023-12-20T07:45:20;24.30;;;7.83;;
15799;SDS011;8002;51.196;7.010;2023-12-20T07:47:48;20.33;;;9.00;;
15799;SDS011;8002;51.196;7.010;2023-12-20T07:50:15;18.27;;;8.60;;
15799;SDS011;8002;51.196;7.010;2023-12-20T07:52:41;19.63;;;9.17;;
15799;SDS011;8002;51.196;7.010;2023-12-20T07:55:07;19.73;;;9.60;;
15799;SDS011;8002;51.196;7.010;2023-12-20T07:57:34;24.70;;;10.07;;
15799;SDS011;8002;51.196;7.010;2023-12-20T08:00:00;18.43;;;9.40;;
15799;SDS011;8002;51.196;7.010;2023-12-20T08:02:28;21.10;;;10.00;;
15799;SDS011;8002;51.196;7.010;2023-12-20T08:04:56;17.33;;;8.93;;
15799;SDS011;8002;51.196;7.010;2023-12-20T08:07:22;22.63;;;9.63;;
15799;SDS011;8002;51.196;7.010;2023-12-20T08:09:49;20.20;;;9.73;;
15799;SDS011;8002;51.196;7.010;2023-12-20T08:12:16;18.83;;;8.80;;
15799;SDS011;8002;51.196;7.010;2023-12-20T08:14:43;20.17;;;8.50;;
15799;SDS011;8002;51.196;7.010;2023-12-20T08:17:09;23.97;;;9.03;;
15799;SDS011;8002;51.196;7.010;2023-12-20T08:19:35;21.83;;;8.80;;
15799;SDS011;8002;51.196;7.010;2023-12-20T08:22:03;20.60;;;8.70;;
15799;SDS011;8002;51.196;7.010;2023-12-20T08:24:29;19.73;;;9.73;;
15799;SDS011;8002;51.196;7.010;2023-12-20T08:26:56;18.97;;;9.80;;
15799;SDS011;8002;51.196;7.010;2023-12-20T08:29:22;22.50;;;9.93;;
15799;SDS011;8002;51.196;7.010;2023-12-20T08:31:51;20.57;;;9.90;;
15799;SDS011;8002;51.196;7.010;2023-12-20T08:34:18;19.47;;;10.57;;
15799;SDS011;8002;51.196;7.010;2023-12-20T08:36:44;20.50;;;10.70;;
15799;SDS011;8002;51.196;7.010;2023-12-20T08:39:12;18.03;;;9.43;;
15799;SDS011;8002;51.196;7.010;2023-12-20T08:41:38;21.93;;;8.93;;
15799;SDS011;8002;51.196;7.010;2023-12-20T08:44:04;18.23;;;9.73;;
15799;SDS011;8002;51.196;7.010;2023-12-20T08:46:31;22.63;;;9.23;;
15799;SDS011;8002;51.196;7.010;2023-12-20T08:48:57;25.10;;;10.93;;
15799;SDS011;8002;51.196;7.010;2023-12-20T08:51:24;23.17;;;9.63;;
15799;SDS011;8002;51.196;7.010;2023-12-20T08:53:50;20.80;;;9.40;;
15799;SDS011;8002;51.196;7.010;2023-12-20T08:56:18;19.20;;;8.97;;
15799;SDS011;8002;51.196;7.010;2023-12-20T08:58:45;19.97;;;9.33;;
15799;SDS011;8002;51.196;7.010;2023-12-20T09:01:11;21.10;;;8.07;;
15799;SDS011;8002;51.196;7.010;2023-12-20T09:03:39;19.10;;;8.50;;
15799;SDS011;8002;51.196;7.010;2023-12-20T09:06:08;22.33;;;9.23;;
15799;SDS011;8002;51.196;7.010;2023-12-20T09:08:34;19.87;;;9.13;;
15799;SDS011;8002;51.196;7.010;2023-12-20T09:11:00;17.10;;;8.30;;
15799;SDS011;8002;51.196;7.010;2023-12-20T09:13:28;20.63;;;9.60;;
15799;SDS011;8002;51.196;7.010;2023-12-20T09:15:56;16.50;;;8.60;;
15799;SDS011;8002;51.196;7.010;2023-12-20T09:18:23;23.13;;;8.57;;
15799;SDS011;8002;51.196;7.010;2023-12-20T09:20:50;22.50;;;9.30;;
15799;SDS011;8002;51.196;7.010;2023-12-20T09:23:16;14.47;;;8.97;;
15799;SDS011;8002;51.196;7.010;2023-12-20T09:25:43;19.77;;;8.50;;
15799;SDS011;8002;51.196;7.010;2023-12-20T09:28:09;19.90;;;8.73;;
15799;SDS011;8002;51.196;7.010;2023-12-20T09:30:37;15.13;;;7.67;;
15799;SDS011;8002;51.196;7.010;2023-12-20T09:33:05;15.23;;;7.73;;
15799;SDS011;8002;51.196;7.010;2023-12-20T09:35:32;16.27;;;7.77;;
15799;SDS011;8002;51.196;7.010;2023-12-20T09:37:58;15.23;;;7.17;;
15799;SDS011;8002;51.196;7.010;2023-12-20T09:40:25;17.07;;;7.53;;
15799;SDS011;8002;51.196;7.010;2023-12-20T09:42:54;16.17;;;7.47;;
15799;SDS011;8002;51.196;7.010;2023-12-20T09:45:22;15.40;;;7.00;;
15799;SDS011;8002;51.196;7.010;2023-12-20T09:47:50;16.13;;;6.27;;
15799;SDS011;8002;51.196;7.010;2023-12-20T09:50:17;17.07;;;6.90;;
15799;SDS011;8002;51.196;7.010;2023-12-20T09:52:44;14.30;;;6.47;;
15799;SDS011;8002;51.196;7.010;2023-12-20T09:55:11;14.37;;;6.30;;
15799;SDS011;8002;51.196;7.010;2023-12-20T09:57:38;19.00;;;7.00;;
15799;SDS011;8002;51.196;7.010;2023-12-20T10:00:06;18.23;;;7.07;;
15799;SDS011;8002;51.196;7.010;2023-12-20T10:02:32;12.80;;;6.07;;
15799;SDS011;8002;51.196;7.010;2023-12-20T10:05:01;15.67;;;6.07;;
15799;SDS011;8002;51.196;7.010;2023-12-20T10:07:28;13.60;;;6.07;;
15799;SDS011;8002;51.196;7.010;2023-12-20T10:09:54;18.43;;;6.10;;
15799;SDS011;8002;51.196;7.010;2023-12-20T10:12:22;14.57;;;6.00;;
15799;SDS011;8002;51.196;7.010;2023-12-20T10:14:48;14.27;;;5.90;;
15799;SDS011;8002;51.196;7.010;2023-12-20T10:17:16;13.13;;;5.97;;
15799;SDS011;8002;51.196;7.010;2023-12-20T10:19:42;11.60;;;5.23;;
15799;SDS011;8002;51.196;7.010;2023-12-20T10:22:10;14.63;;;5.90;;
15799;SDS011;8002;51.196;7.010;2023-12-20T10:24:36;15.53;;;5.77;;
15799;SDS011;8002;51.196;7.010;2023-12-20T10:27:03;15.53;;;6.27;;
15799;SDS011;8002;51.196;7.010;2023-12-20T10:29:31;15.37;;;6.13;;
15799;SDS011;8002;51.196;7.010;2023-12-20T10:31:58;14.73;;;6.27;;
15799;SDS011;8002;51.196;7.010;2023-12-20T10:34:24;12.67;;;5.30;;
15799;SDS011;8002;51.196;7.010;2023-12-20T10:36:51;12.87;;;5.73;;
15799;SDS011;8002;51.196;7.010;2023-12-20T10:39:19;19.70;;;6.63;;
15799;SDS011;8002;51.196;7.010;2023-12-20T10:41:46;16.30;;;6.27;;
15799;SDS011;8002;51.196;7.010;2023-12-20T10:44:13;12.17;;;6.17;;
15799;SDS011;8002;51.196;7.010;2023-12-20T10:46:41;20.30;;;5.70;;
15799;SDS011;8002;51.196;7.010;2023-12-20T10:49:12;13.93;;;5.53;;
15799;SDS011;8002;51.196;7.010;2023-12-20T10:51:39;15.67;;;6.20;;
15799;SDS011;8002;51.196;7.010;2023-12-20T10:54:06;15.00;;;6.57;;
15799;SDS011;8002;51.196;7.010;2023-12-20T10:56:35;19.40;;;6.77;;
15799;SDS011;8002;51.196;7.010;2023-12-20T10:59:02;14.00;;;6.20;;
15799;SDS011;8002;51.196;7.010;2023-12-20T11:01:30;14.70;;;6.60;;
15799;SDS011;8002;51.196;7.010;2023-12-20T11:03:57;16.30;;;6.13;;
15799;SDS011;8002;51.196;7.010;2023-12-20T11:06:28;16.63;;;6.97;;
15799;SDS011;8002;51.196;7.010;2023-12-20T11:08:59;14.60;;;6.87;;
15799;SDS011;8002;51.196;7.010;2023-12-20T11:11:37;12.47;;;5.43;;
15799;SDS011;8002;51.196;7.010;2023-12-20T11:14:06;20.70;;;7.27;;
15799;SDS011;8002;51.196;7.010;2023-12-20T11:16:33;14.80;;;6.73;;
15799;SDS011;8002;51.196;7.010;2023-12-20T11:19:04;15.00;;;6.53;;
15799;SDS011;8002;51.196;7.010;2023-12-20T11:21:30;15.97;;;5.83;;
15799;SDS011;8002;51.196;7.010;2023-12-20T11:23:57;15.20;;;6.07;;
15799;SDS011;8002;51.196;7.010;2023-12-20T11:26:22;12.97;;;6.80;;
15799;SDS011;8002;51.196;7.010;2023-12-20T11:28:50;14.30;;;6.40;;
15799;SDS011;8002;51.196;7.010;2023-12-20T11:31:16;15.43;;;6.03;;
15799;SDS011;8002;51.196;7.010;2023-12-20T11:33:43;13.17;;;6.07;;
15799;SDS011;8002;51.196;7.010;2023-12-20T11:36:13;12.03;;;5.50;;
15799;SDS011;8002;51.196;7.010;2023-12-20T11:38:47;18.37;;;7.07;;
15799;SDS011;8002;51.196;7.010;2023-12-20T11:41:16;11.60;;;6.43;;
15799;SDS011;8002;51.196;7.010;2023-12-20T11:43:43;14.57;;;7.07;;
15799;SDS011;8002;51.196;7.010;2023-12-20T11:46:11;16.97;;;6.87;;
15799;SDS011;8002;51.196;7.010;2023-12-20T11:48:38;12.70;;;6.47;;
15799;SDS011;8002;51.196;7.010;2023-12-20T11:51:08;15.13;;;5.90;;
15799;SDS011;8002;51.196;7.010;2023-12-20T11:53:35;15.83;;;6.83;;
15799;SDS011;8002;51.196;7.010;2023-12-20T11:56:02;15.57;;;6.00;;
15799;SDS011;8002;51.196;7.010;2023-12-20T11:58:28;16.57;;;6.67;;
15799;SDS011;8002;51.196;7.010;2023-12-20T12:00:55;13.63;;;5.60;;
15799;SDS011;8002;51.196;7.010;2023-12-20T12:03:22;13.63;;;6.00;;
15799;SDS011;8002;51.196;7.010;2023-12-20T12:05:49;13.33;;;5.93;;
15799;SDS011;8002;51.196;7.010;2023-12-20T12:08:16;13.33;;;6.33;;
15799;SDS011;8002;51.196;7.010;2023-12-20T12:10:43;11.23;;;6.60;;
15799;SDS011;8002;51.196;7.010;2023-12-20T12:13:09;12.50;;;6.93;;
15799;SDS011;8002;51.196;7.010;2023-12-20T12:15:36;12.93;;;6.90;;
15799;SDS011;8002;51.196;7.010;2023-12-20T12:18:03;14.77;;;6.30;;
15799;SDS011;8002;51.196;7.010;2023-12-20T12:20:31;17.70;;;6.87;;
15799;SDS011;8002;51.196;7.010;2023-12-20T12:22:58;17.13;;;6.00;;
15799;SDS011;8002;51.196;7.010;2023-12-20T12:25:24;15.03;;;6.70;;
15799;SDS011;8002;51.196;7.010;2023-12-20T12:27:51;18.83;;;6.83;;
15799;SDS011;8002;51.196;7.010;2023-12-20T12:30:17;14.07;;;6.23;;
15799;SDS011;8002;51.196;7.010;2023-12-20T12:32:43;14.77;;;6.13;;
15799;SDS011;8002;51.196;7.010;2023-12-20T12:35:10;12.37;;;6.93;;
15799;SDS011;8002;51.196;7.010;2023-12-20T12:37:38;15.27;;;7.13;;
15799;SDS011;8002;51.196;7.010;2023-12-20T12:40:06;17.37;;;6.83;;
15799;SDS011;8002;51.196;7.010;2023-12-20T12:42:32;19.17;;;6.57;;
15799;SDS011;8002;51.196;7.010;2023-12-20T12:44:58;13.10;;;6.53;;
15799;SDS011;8002;51.196;7.010;2023-12-20T12:47:25;14.97;;;7.07;;
15799;SDS011;8002;51.196;7.010;2023-12-20T12:49:51;14.57;;;7.57;;
15799;SDS011;8002;51.196;7.010;2023-12-20T12:52:18;15.17;;;6.90;;
15799;SDS011;8002;51.196;7.010;2023-12-20T12:54:45;14.77;;;6.33;;
15799;SDS011;8002;51.196;7.010;2023-12-20T12:57:13;14.43;;;6.67;;
15799;SDS011;8002;51.196;7.010;2023-12-20T12:59:39;13.97;;;6.47;;
15799;SDS011;8002;51.196;7.010;2023-12-20T13:02:06;16.07;;;7.50;;
15799;SDS011;8002;51.196;7.010;2023-12-20T13:04:33;11.40;;;6.30;;
15799;SDS011;8002;51.196;7.010;2023-12-20T13:06:59;16.37;;;7.20;;
15799;SDS011;8002;51.196;7.010;2023-12-20T13:09:26;19.70;;;7.23;;
15799;SDS011;8002;51.196;7.010;2023-12-20T13:11:54;10.40;;;6.63;;
15799;SDS011;8002;51.196;7.010;2023-12-20T13:14:20;13.27;;;8.33;;
15799;SDS011;8002;51.196;7.010;2023-12-20T13:16:47;11.87;;;6.43;;
15799;SDS011;8002;51.196;7.010;2023-12-20T13:19:12;16.17;;;7.37;;
15799;SDS011;8002;51.196;7.010;2023-12-20T13:21:38;19.63;;;8.20;;
15799;SDS011;8002;51.196;7.010;2023-12-20T13:24:05;18.63;;;8.13;;
15799;SDS011;8002;51.196;7.010;2023-12-20T13:26:32;14.40;;;7.63;;
15799;SDS011;8002;51.196;7.010;2023-12-20T13:28:59;16.27;;;8.00;;
15799;SDS011;8002;51.196;7.010;2023-12-20T13:31:26;16.07;;;8.37;;
15799;SDS011;8002;51.196;7.010;2023-12-20T13:33:52;13.73;;;8.50;;
15799;SDS011;8002;51.196;7.010;2023-12-20T13:36:19;12.40;;;8.27;;
15799;SDS011;8002;51.196;7.010;2023-12-20T13:38:45;11.33;;;7.00;;
15799;SDS011;8002;51.196;7.010;2023-12-20T13:41:11;15.67;;;7.90;;
15799;SDS011;8002;51.196;7.010;2023-12-20T13:43:38;16.43;;;8.63;;
15799;SDS011;8002;51.196;7.010;2023-12-20T13:46:05;17.80;;;8.83;;
15799;SDS011;8002;51.196;7.010;2023-12-20T13:48:32;16.03;;;8.23;;
15799;SDS011;8002;51.196;7.010;2023-12-20T13:50:58;11.80;;;7.53;;
15799;SDS011;8002;51.196;7.010;2023-12-20T13:53:25;15.30;;;7.93;;
15799;SDS011;8002;51.196;7.010;2023-12-20T13:55:51;18.37;;;9.57;;
15799;SDS011;8002;51.196;7.010;2023-12-20T13:58:17;12.93;;;7.37;;
15799;SDS011;8002;51.196;7.010;2023-12-20T14:00:44;15.27;;;8.73;;
15799;SDS011;8002;51.196;7.010;2023-12-20T14:03:12;15.63;;;8.20;;
15799;SDS011;8002;51.196;7.010;2023-12-20T14:05:39;16.17;;;8.30;;
15799;SDS011;8002;51.196;7.010;2023-12-20T14:08:06;17.10;;;8.37;;
15799;SDS011;8002;51.196;7.010;2023-12-20T14:10:32;17.73;;;9.50;;
15799;SDS011;8002;51.196;7.010;2023-12-20T14:12:58;17.10;;;8.67;;
15799;SDS011;8002;51.196;7.010;2023-12-20T14:15:25;13.50;;;8.30;;
15799;SDS011;8002;51.196;7.010;2023-12-20T14:17:51;13.13;;;8.10;;
15799;SDS011;8002;51.196;7.010;2023-12-20T14:20:19;12.63;;;8.03;;
15799;SDS011;8002;51.196;7.010;2023-12-20T14:22:45;16.77;;;10.30;;
15799;SDS011;8002;51.196;7.010;2023-12-20T14:25:11;15.67;;;8.77;;
15799;SDS011;8002;51.196;7.010;2023-12-20T14:27:38;16.43;;;9.10;;
15799;SDS011;8002;51.196;7.010;2023-12-20T14:30:05;11.60;;;7.87;;
15799;SDS011;8002;51.196;7.010;2023-12-20T14:32:34;12.03;;;7.70;;
15799;SDS011;8002;51.196;7.010;2023-12-20T14:35:02;13.50;;;8.37;;
15799;SDS011;8002;51.196;7.010;2023-12-20T14:37:30;13.20;;;7.27;;
15799;SDS011;8002;51.196;7.010;2023-12-20T14:39:57;15.17;;;8.10;;
15799;SDS011;8002;51.196;7.010;2023-12-20T14:42:23;14.40;;;8.10;;